X  Schließen METAR Luftfahrt Wetterdaten     EDDH Hamburg Helmut Schmidt Airport
Temperatur
17°C Temperatur
8°C Taupunkt
56% Feuchtigkeit



Wind
16 KM/S
10 MPS
4 M/S
9 KTS



300°
WNW
Aktuelle Wetterlage

Teilweise bewölkt Teilweise bewölkt
Luftdruck 1015.92 (hPa) - 30 (inHg)
Sichtweite 6.2 (Meile) - 10 (Km)
Flughafen
Flughafen Code EDDH

Position : Hamburg Helmut Schmidt Airport
Entfernung: 11 (Km)

Metar:
EDDH 221250Z AUTO 30009KT 9999 FEW047 17/08 Q1016 NOSIG

Zeit: 22-05-2022 14:50 CEST